AirNav   Air Wisconsin Up To $57,000 Bonus
 
 674 users online  

6CL8 Harley Airport
Stockton, California, USA

GOING TO STOCKTON?


FAA INFORMATION EFFECTIVE 07 NOVEMBER 2019

Location

FAA Identifier: 6CL8
Lat/Long: 37-57-03.0000N 121-14-36.0000W
37-57.050000N 121-14.600000W
37.9508333,-121.2433333
(estimated)
Elevation: 20 ft. / 6 m (estimated)
Variation: 16E (1995)
From city: 4 miles SE of STOCKTON, CA
Time zone: UTC -8 (UTC -7 during Daylight Saving Time)
Zip code: 95205

Airport Operations

Airport use: Private use. Permission required prior to landing
Activation date: 10/1999
Control tower: no
ARTCC: OAKLAND CENTER
FSS: RANCHO MURIETA FLIGHT SERVICE STATION
Attendance: UNATNDD
Wind indicator: yes
Segmented circle: no

Airport Communications

WX ASOS at SCK (3 nm S): PHONE 209-982-4270
WX AWOS-3 at TCY (18 nm SW): 118.375 (209-831-4335)
WX AWOS-3 at C83 (20 nm W): 123.775 (925-634-0906)

Nearby radio navigation aids

VOR radial/distance  VOR name  Freq  Var
LINr220/13.5LINDEN VOR/DME114.8017E
MODr308/23.7MODESTO VOR/DME114.6017E
SACr137/33.0SACRAMENTO VORTAC115.2017E
CCRr081/38.3CONCORD VOR/DME117.0017E

Airport Services

Runway Information

Runway 9/27

Dimensions: 1700 x 30 ft. / 518 x 9 m
Surface: gravel
RUNWAY 9  RUNWAY 27
Traffic pattern: leftleft
Displaced threshold: 300 ft.300 ft.
Obstructions: 80 ft. trees, 200 ft. from runway50 ft. trees, 300 ft. from runway

Airport Ownership and Management from official FAA records

Ownership: Privately-owned
Owner: MURRAY FAMILY TRUST OF 1989
295 ELK RIDGE LN
BOULDER, CO 80302-9302
Phone (303) 444-4557
Manager: DAVID MURRAY
295 ELK RIDGE LN
BOULDER, CO 80302-9302
Phone (303) 444-4557

Additional Remarks

RY 09/27 SOFT AFTER RAIN.
FOR CD CTC NORCAL APCH AT 916-361-0516.
LAND WITH PPR OF OWNER ONLY.

Instrument Procedures

There are no published instrument procedures at 6CL8.

Some nearby airports with instrument procedures:

KSCK - Stockton Metropolitan Airport (3 nm S)
1O3 - Lodi Airport (15 nm N)
KTCY - Tracy Municipal Airport (18 nm SW)
C83 - Byron Airport (20 nm W)
KMOD - Modesto City-County Airport-Harry Sham Field (24 nm SE)
 
Loc | Ops | Rwys | IFR | FBO | Links
Com | Nav | Svcs | Stats | Notes
Area around 6CL8 (Harley Airport)
 
Road maps at: MapQuest Bing Google
 
Aerial photo
No photo
 
Sectional chart

 
Airport distance calculator
Flying to Harley Airport? Find the distance to fly.

From to 6CL8

Sunrise and sunset
Times for 21-Nov-2019
 Local
(UTC-8)
 Zulu
(UTC)
Morning civil twilight06:2514:25
Sunrise06:5314:53
Sunset16:4900:49
Evening civil twilight17:1701:17

Current date and time
Zulu (UTC)  22-Nov-2019 05:35:41
Local (UTC-8)  21-Nov-2019 21:35:41
 
METAR
KSCK 
4nm S 
220455Z AUTO 14003KT 9SM CLR 11/06 A3000 RMK AO2 SLP160 T01060056
KTCY 
18nm SW 
220515Z AUTO 21006KT 10SM SCT029 BKN035 OVC060 12/05 A3001 RMK A01
KC83 
20nm W 
220515Z AUTO 36007KT 3SM HZ SCT050 BKN055 10/05 A3001 RMK AO2
TAF
KSCK 
4nm S 
211738Z 2118/2218 27004KT P6SM SKC FM221200 32003KT P6SM FEW030
NOTAMs
Click for the latest NOTAMs
NOTAMs are issued by the DoD/FAA and will open in a separate window not controlled by AirNav.

 

 
 

Would you like to see your business listed on this page?

 If your business provides an interesting product or service to pilots, flight crews, aircraft, or users of the Harley Airport, you should consider listing it here.  To start the listing process, click on the button below
 
Add a business
 

Other Pages about Harley Airport

Update a link
 
Copyright © AirNav, LLC. All rights reserved. Privacy Policy  Contact